MKJS 252000Z 07018KT 9999 FEW022CB 32/27 Q1014
MKJP 252000Z 14020KT 9999 FEW020 32/26 Q1014
MWCR 252000Z 03011KT 9999 FEW018 32/27 Q1016 NOSIG
MWCB 252000Z 10007KT 9999 FEW018 33/26 Q1016